Time;durP1;ratioP1;P1;durP2;ratioP2;P2;SDS_P1;SDS_P2;PMS_P1;PMS_P2;Temp;Humidity;BMP_temperature;BMP_pressure;BME280_temperature;BME280_humidity;BME280_pressure;Samples;Min_cycle;Max_cycle;Signal;HPM_P1;HPM_P2
2021/11/21 00:02:23;;;;;;;19.88;10.82;;;9.70;99.90;;;;;;5116434;28;20043;-73
2021/11/21 00:04:50;;;;;;;19.77;10.00;;;9.70;99.90;;;;;;5116726;28;20043;-73
2021/11/21 00:07:16;;;;;;;17.00;10.20;;;9.70;99.90;;;;;;5115982;28;20047;-72
2021/11/21 00:09:41;;;;;;;22.55;10.57;;;9.70;99.90;;;;;;5116483;28;20050;-73
2021/11/21 00:12:07;;;;;;;19.83;10.65;;;9.70;99.90;;;;;;5114736;28;20046;-73
2021/11/21 00:14:33;;;;;;;21.83;10.90;;;9.70;99.90;;;;;;5114811;28;20051;-73
2021/11/21 00:17:01;;;;;;;16.70;9.77;;;9.70;99.90;;;;;;5115515;28;20127;-73
2021/11/21 00:19:27;;;;;;;23.90;10.73;;;9.70;99.90;;;;;;5116326;28;20047;-72
2021/11/21 00:21:53;;;;;;;21.20;10.38;;;9.70;99.90;;;;;;5116032;28;20048;-73
2021/11/21 00:24:18;;;;;;;16.92;10.68;;;9.70;99.90;;;;;;5114615;28;20123;-73
2021/11/21 00:26:44;;;;;;;15.85;11.07;;;9.70;99.90;;;;;;5113558;28;20082;-73
2021/11/21 00:29:09;;;;;;;16.50;10.55;;;9.70;99.90;;;;;;5115962;28;20031;-72
2021/11/21 00:31:35;;;;;;;19.02;10.85;;;9.70;99.90;;;;;;5115800;28;20077;-72
2021/11/21 00:34:01;;;;;;;19.50;10.70;;;9.70;99.90;;;;;;5116070;28;20036;-72
2021/11/21 00:36:26;;;;;;;17.88;10.68;;;9.70;99.90;;;;;;5115346;28;20126;-73
2021/11/21 00:38:52;;;;;;;20.00;11.05;;;9.70;99.90;;;;;;5115495;28;20404;-73
2021/11/21 00:41:18;;;;;;;18.13;10.32;;;9.60;99.90;;;;;;5114776;28;20051;-73
2021/11/21 00:43:43;;;;;;;19.60;10.70;;;9.60;99.90;;;;;;5115611;28;20362;-73
2021/11/21 00:46:09;;;;;;;19.33;10.85;;;9.70;99.90;;;;;;5115308;28;20047;-73
2021/11/21 00:48:37;;;;;;;17.75;11.32;;;9.70;99.90;;;;;;5115704;28;20377;-73
2021/11/21 00:51:03;;;;;;;17.42;10.93;;;9.60;99.90;;;;;;5114448;28;20135;-73
2021/11/21 00:53:30;;;;;;;21.65;10.65;;;9.60;99.90;;;;;;5115351;28;20108;-73
2021/11/21 00:56:03;;;;;;;17.15;10.38;;;9.70;99.90;;;;;;5114847;27;20043;-73
2021/11/21 00:58:33;;;;;;;16.63;10.77;;;9.70;99.90;;;;;;5115522;28;20036;-73
2021/11/21 01:01:00;;;;;;;18.05;10.45;;;9.60;99.90;;;;;;5115163;28;20561;-73
2021/11/21 01:03:26;;;;;;;15.73;10.15;;;9.70;99.90;;;;;;5114070;28;20118;-73
2021/11/21 01:05:55;;;;;;;24.52;11.02;;;9.70;99.90;;;;;;5115406;28;20066;-73
2021/11/21 01:08:21;;;;;;;17.33;10.30;;;9.70;99.90;;;;;;5114919;28;20160;-73
2021/11/21 01:10:49;;;;;;;17.17;10.25;;;9.70;99.90;;;;;;5114016;28;20043;-73
2021/11/21 01:13:14;;;;;;;14.80;9.20;;;9.60;99.90;;;;;;5114903;28;20036;-73
2021/11/21 01:15:41;;;;;;;15.27;9.75;;;9.60;99.90;;;;;;5114558;28;20599;-73
2021/11/21 01:18:08;;;;;;;15.88;9.43;;;9.60;99.90;;;;;;5114893;28;20096;-73
2021/11/21 01:20:36;;;;;;;18.73;10.45;;;9.60;99.90;;;;;;5096790;28;20510;-73
2021/11/21 01:23:02;;;;;;;17.83;10.38;;;9.60;99.90;;;;;;5114239;28;20067;-73
2021/11/21 01:25:28;;;;;;;16.23;9.93;;;9.70;99.90;;;;;;5114708;28;20039;-73
2021/11/21 01:27:55;;;;;;;17.58;10.02;;;9.60;99.90;;;;;;5114288;28;20050;-73
2021/11/21 01:30:26;;;;;;;20.33;10.50;;;9.70;99.90;;;;;;5114847;28;20047;-73
2021/11/21 01:32:52;;;;;;;16.08;9.50;;;9.70;99.90;;;;;;5114746;28;20044;-73
2021/11/21 01:35:17;;;;;;;15.82;9.75;;;9.70;99.90;;;;;;5113966;28;20365;-73
2021/11/21 01:37:43;;;;;;;26.40;9.95;;;9.70;99.90;;;;;;5113367;28;20396;-73
2021/11/21 01:40:11;;;;;;;15.23;9.90;;;9.70;99.90;;;;;;5114537;28;20034;-73
2021/11/21 01:42:37;;;;;;;15.60;9.43;;;9.70;99.90;;;;;;5113384;28;20517;-73
2021/11/21 01:45:05;;;;;;;15.82;9.63;;;9.60;99.90;;;;;;5114329;28;20497;-73
2021/11/21 01:47:31;;;;;;;14.75;9.85;;;9.60;99.90;;;;;;5114190;28;20493;-73
2021/11/21 01:49:56;;;;;;;15.57;10.00;;;9.70;99.90;;;;;;5114207;28;20069;-73
2021/11/21 01:52:22;;;;;;;13.82;8.77;;;9.60;99.90;;;;;;5114143;28;20039;-73
2021/11/21 01:54:48;;;;;;;14.25;8.43;;;9.60;99.90;;;;;;5114248;28;20071;-73
2021/11/21 01:57:16;;;;;;;14.07;8.88;;;9.70;99.90;;;;;;5113670;28;20084;-73
2021/11/21 01:59:42;;;;;;;12.75;7.97;;;9.60;99.90;;;;;;5113071;28;20058;-73
2021/11/21 02:02:07;;;;;;;10.85;7.20;;;9.60;99.90;;;;;;5114453;28;20476;-73
2021/11/21 02:04:33;;;;;;;13.60;7.38;;;9.70;99.90;;;;;;5113990;28;20381;-73
2021/11/21 02:06:58;;;;;;;11.93;6.53;;;9.70;99.90;;;;;;5113619;28;20039;-73
2021/11/21 02:09:26;;;;;;;11.18;6.80;;;9.70;99.90;;;;;;5114199;28;20036;-74
2021/11/21 02:11:51;;;;;;;13.05;7.03;;;9.70;99.90;;;;;;5112913;28;20110;-74
2021/11/21 02:14:17;;;;;;;12.10;6.20;;;9.70;99.90;;;;;;5096116;28;20516;-74
2021/11/21 02:16:45;;;;;;;10.20;6.38;;;9.70;99.90;;;;;;5112173;28;20096;-74
2021/11/21 02:19:11;;;;;;;8.95;6.13;;;9.70;99.90;;;;;;5114332;28;20035;-74
2021/11/21 02:21:37;;;;;;;8.77;5.35;;;9.70;99.90;;;;;;5113987;28;20043;-74
2021/11/21 02:24:02;;;;;;;11.15;5.60;;;9.60;99.90;;;;;;5113968;28;20405;-74
2021/11/21 02:26:28;;;;;;;10.55;5.15;;;9.60;99.90;;;;;;5113357;28;20378;-74
2021/11/21 02:28:55;;;;;;;6.70;4.63;;;9.70;99.90;;;;;;5114163;28;20040;-74
2021/11/21 02:31:21;;;;;;;6.30;4.22;;;9.70;99.90;;;;;;5095591;28;20047;-74
2021/11/21 02:33:49;;;;;;;6.75;4.22;;;9.70;99.90;;;;;;5113701;28;20488;-74
2021/11/21 02:36:15;;;;;;;6.10;3.95;;;9.70;99.90;;;;;;5113389;28;20036;-74
2021/11/21 02:38:41;;;;;;;7.63;4.13;;;9.70;99.90;;;;;;5112443;28;20046;-74
2021/11/21 02:41:09;;;;;;;5.95;3.38;;;9.70;99.90;;;;;;5112426;28;20382;-74
2021/11/21 02:43:36;;;;;;;5.13;3.20;;;9.70;99.90;;;;;;5113611;28;20073;-74
2021/11/21 02:46:02;;;;;;;4.88;3.58;;;9.70;99.90;;;;;;5113354;28;20031;-74
2021/11/21 02:48:30;;;;;;;6.35;3.42;;;9.70;99.90;;;;;;5113926;28;20040;-74
2021/11/21 02:50:57;;;;;;;5.15;3.15;;;9.70;99.90;;;;;;5117680;28;20389;-74
2021/11/21 02:53:27;;;;;;;6.05;3.75;;;9.70;99.90;;;;;;5118053;28;20392;-74
2021/11/21 02:55:56;;;;;;;5.97;2.40;;;9.70;99.90;;;;;;5117441;28;20035;-74
2021/11/21 02:58:22;;;;;;;6.88;3.10;;;9.70;99.90;;;;;;5116238;28;20118;-74
2021/11/21 03:00:48;;;;;;;4.50;2.78;;;9.70;99.90;;;;;;5116197;28;20494;-75
2021/11/21 03:03:15;;;;;;;6.85;3.42;;;9.70;99.90;;;;;;5117471;28;20074;-75
2021/11/21 03:05:40;;;;;;;5.95;2.72;;;9.70;99.90;;;;;;5116117;28;20043;-75
2021/11/21 03:08:06;;;;;;;5.97;2.40;;;9.70;99.90;;;;;;5117261;28;20046;-75
2021/11/21 03:10:32;;;;;;;5.47;2.38;;;9.60;99.90;;;;;;5116520;28;20054;-75
2021/11/21 03:13:01;;;;;;;9.35;2.97;;;9.70;99.90;;;;;;5117427;28;20050;-75
2021/11/21 03:15:27;;;;;;;7.57;2.60;;;9.70;99.90;;;;;;5115978;28;20114;-75
2021/11/21 03:17:54;;;;;;;9.70;2.35;;;9.60;99.90;;;;;;5117037;28;20047;-75
2021/11/21 03:20:24;;;;;;;7.57;2.20;;;9.60;99.90;;;;;;5117508;28;20036;-75
2021/11/21 03:22:50;;;;;;;9.00;2.30;;;9.60;99.90;;;;;;5117548;28;20101;-75
2021/11/21 03:25:17;;;;;;;7.57;2.70;;;9.60;99.90;;;;;;5115665;28;20442;-75
2021/11/21 03:27:43;;;;;;;8.45;2.30;;;9.60;99.90;;;;;;5116954;28;20054;-75
2021/11/21 03:30:12;;;;;;;8.75;2.10;;;9.60;99.90;;;;;;5115934;28;20043;-75
2021/11/21 03:32:38;;;;;;;12.40;2.45;;;9.60;99.90;;;;;;5117258;28;20071;-75
2021/11/21 03:35:05;;;;;;;9.82;2.40;;;9.60;99.90;;;;;;5115838;28;20042;-75
2021/11/21 03:37:31;;;;;;;7.35;1.90;;;9.60;99.90;;;;;;5116495;28;20051;-75
2021/11/21 03:39:56;;;;;;;9.35;1.80;;;9.60;99.90;;;;;;5116923;28;20031;-75
2021/11/21 03:42:22;;;;;;;4.85;1.50;;;9.60;99.90;;;;;;5115552;28;20118;-75
2021/11/21 03:44:47;;;;;;;9.13;1.75;;;9.60;99.90;;;;;;5116627;28;20031;-75
2021/11/21 03:47:13;;;;;;;5.07;1.30;;;9.60;99.90;;;;;;5116562;28;20051;-75
2021/11/21 03:49:39;;;;;;;4.95;1.60;;;9.60;99.90;;;;;;5116567;28;20400;-75
2021/11/21 03:52:05;;;;;;;6.75;1.52;;;9.60;99.90;;;;;;5116506;28;20370;-75
2021/11/21 03:54:31;;;;;;;10.30;1.20;;;9.50;99.90;;;;;;5117161;28;20031;-75
2021/11/21 03:56:58;;;;;;;5.30;1.10;;;9.50;99.90;;;;;;5114722;28;20465;-75
2021/11/21 03:59:23;;;;;;;6.82;1.23;;;9.50;99.90;;;;;;5115112;28;20050;-75
2021/11/21 04:01:49;;;;;;;6.40;1.30;;;9.40;99.90;;;;;;5115712;28;20036;-75
2021/11/21 04:04:15;;;;;;;8.30;2.58;;;9.40;99.90;;;;;;5116792;28;20044;-75
2021/11/21 04:06:41;;;;;;;9.02;1.98;;;9.40;99.90;;;;;;5115776;28;20423;-75
2021/11/21 04:09:07;;;;;;;9.48;1.48;;;9.30;99.90;;;;;;5116329;28;20048;-75
2021/11/21 04:11:33;;;;;;;7.78;1.55;;;9.30;99.90;;;;;;5116221;28;20044;-75
2021/11/21 04:13:59;;;;;;;8.43;1.65;;;9.30;99.90;;;;;;5114867;28;20046;-75
2021/11/21 04:16:26;;;;;;;10.75;1.42;;;9.30;99.90;;;;;;5115556;28;20047;-75
2021/11/21 04:18:52;;;;;;;7.15;1.15;;;9.30;99.90;;;;;;5114765;28;20118;-75
2021/11/21 04:21:17;;;;;;;10.40;1.25;;;9.20;99.90;;;;;;5116296;28;20119;-74
2021/11/21 04:23:43;;;;;;;10.45;1.35;;;9.30;99.90;;;;;;5114740;28;20039;-74
2021/11/21 04:26:09;;;;;;;10.57;1.30;;;9.30;99.90;;;;;;5115689;28;20023;-75
2021/11/21 04:28:36;;;;;;;10.27;1.70;;;9.30;99.90;;;;;;5115737;28;20028;-75
2021/11/21 04:31:02;;;;;;;5.82;1.65;;;9.30;99.90;;;;;;5115765;28;20039;-75
2021/11/21 04:33:27;;;;;;;9.57;1.73;;;9.30;99.90;;;;;;5114522;28;20127;-75
2021/11/21 04:35:53;;;;;;;12.35;1.65;;;9.30;99.90;;;;;;5114679;28;20047;-75
2021/11/21 04:38:21;;;;;;;10.75;1.48;;;9.30;99.90;;;;;;5115570;28;20032;-75
2021/11/21 04:40:48;;;;;;;8.18;1.67;;;9.20;99.90;;;;;;5114587;28;20068;-75
2021/11/21 04:43:15;;;;;;;7.05;2.10;;;9.20;99.90;;;;;;5097495;28;20492;-75
2021/11/21 04:45:41;;;;;;;7.15;1.67;;;9.20;99.90;;;;;;5115264;28;20036;-75
2021/11/21 04:48:06;;;;;;;6.75;1.17;;;9.20;99.90;;;;;;5115894;28;20400;-75
2021/11/21 04:50:33;;;;;;;7.93;1.45;;;9.10;99.90;;;;;;5115890;28;20039;-75
2021/11/21 04:52:58;;;;;;;4.72;1.35;;;9.10;99.90;;;;;;5115307;28;20039;-75
2021/11/21 04:55:24;;;;;;;12.88;1.67;;;9.20;99.90;;;;;;5115173;28;20110;-76
2021/11/21 04:57:49;;;;;;;9.68;1.58;;;9.10;99.90;;;;;;5115095;28;20071;-75
2021/11/21 05:00:18;;;;;;;10.63;1.70;;;9.10;99.90;;;;;;5115300;28;20036;-75
2021/11/21 05:02:49;;;;;;;7.57;1.45;;;9.10;99.90;;;;;;5115502;28;20047;-75
2021/11/21 05:05:16;;;;;;;9.93;1.50;;;9.10;99.90;;;;;;5115488;28;20043;-75
2021/11/21 05:07:43;;;;;;;7.68;1.40;;;9.10;99.90;;;;;;5114787;28;20043;-75
2021/11/21 05:10:09;;;;;;;7.55;1.50;;;9.20;99.90;;;;;;5114367;28;20429;-75
2021/11/21 05:12:36;;;;;;;8.30;1.40;;;9.10;99.90;;;;;;5113913;28;20114;-75
2021/11/21 05:15:03;;;;;;;9.82;1.58;;;9.10;99.90;;;;;;5115076;28;20043;-75
2021/11/21 05:17:29;;;;;;;5.72;1.48;;;9.20;99.90;;;;;;5113198;28;20052;-75
2021/11/21 05:19:58;;;;;;;6.22;1.40;;;9.10;99.90;;;;;;5113736;28;20400;-75
2021/11/21 05:22:24;;;;;;;8.30;1.98;;;9.10;99.90;;;;;;5115131;28;20040;-75
2021/11/21 05:24:50;;;;;;;6.57;1.70;;;9.10;99.90;;;;;;5114582;28;20042;-75
2021/11/21 05:27:15;;;;;;;14.98;2.50;;;9.10;99.90;;;;;;5096417;28;20039;-75
2021/11/21 05:29:41;;;;;;;10.25;1.90;;;9.10;99.90;;;;;;5114632;28;20473;-75
2021/11/21 05:32:07;;;;;;;10.13;2.20;;;9.00;99.90;;;;;;5115226;28;20038;-75
2021/11/21 05:34:32;;;;;;;10.98;1.67;;;9.00;99.90;;;;;;5115113;28;20040;-75
2021/11/21 05:36:58;;;;;;;8.98;1.88;;;9.00;99.90;;;;;;5114042;28;20069;-75
2021/11/21 05:39:24;;;;;;;11.88;2.08;;;9.00;99.90;;;;;;5114615;28;20031;-75
2021/11/21 05:41:49;;;;;;;16.65;1.98;;;8.90;99.90;;;;;;5114669;28;20039;-75
2021/11/21 05:44:15;;;;;;;14.52;2.17;;;8.90;99.90;;;;;;5113540;28;20078;-75
2021/11/21 05:46:42;;;;;;;21.38;2.85;;;8.90;99.90;;;;;;5114126;28;20086;-75
2021/11/21 05:49:08;;;;;;;14.82;1.88;;;8.80;99.90;;;;;;5114806;28;20056;-75
2021/11/21 05:51:34;;;;;;;11.63;1.83;;;8.80;99.90;;;;;;5114804;28;20407;-75
2021/11/21 05:54:00;;;;;;;12.65;2.38;;;8.70;99.90;;;;;;5114693;28;20089;-74
2021/11/21 05:56:25;;;;;;;10.32;2.53;;;8.70;99.90;;;;;;5095969;28;20039;-74
2021/11/21 05:58:51;;;;;;;11.73;1.80;;;8.60;99.90;;;;;;5114570;28;20035;-75
2021/11/21 06:01:18;;;;;;;9.05;2.22;;;8.60;99.90;;;;;;5114509;28;20115;-75
2021/11/21 06:03:44;;;;;;;10.73;2.28;;;8.60;99.90;;;;;;5114374;28;20118;-75
2021/11/21 06:06:10;;;;;;;9.02;2.08;;;8.50;99.90;;;;;;5113671;28;20043;-75
2021/11/21 06:08:36;;;;;;;17.30;1.95;;;8.50;99.90;;;;;;5114195;28;20044;-75
2021/11/21 06:11:01;;;;;;;12.35;2.20;;;8.50;99.90;;;;;;5114062;28;20035;-75
2021/11/21 06:13:27;;;;;;;9.13;1.50;;;8.40;99.90;;;;;;5114178;28;20035;-75
2021/11/21 06:15:53;;;;;;;8.55;1.85;;;8.40;99.90;;;;;;5113825;28;20074;-75
2021/11/21 06:18:19;;;;;;;14.65;1.77;;;8.30;99.90;;;;;;5113753;28;20118;-75
2021/11/21 06:20:45;;;;;;;10.30;2.03;;;8.30;99.90;;;;;;5112607;28;20118;-75
2021/11/21 06:23:11;;;;;;;17.15;3.30;;;8.30;99.90;;;;;;5113532;28;20119;-75
2021/11/21 06:25:38;;;;;;;11.77;2.05;;;8.30;99.90;;;;;;5113420;28;20047;-75
2021/11/21 06:28:04;;;;;;;14.25;1.90;;;8.30;99.90;;;;;;5114183;28;20047;-74
2021/11/21 06:30:29;;;;;;;9.27;1.95;;;8.30;99.90;;;;;;5112604;28;20043;-75
2021/11/21 06:32:55;;;;;;;11.70;1.85;;;8.20;99.90;;;;;;5112146;28;20039;-75
2021/11/21 06:35:21;;;;;;;11.77;2.15;;;8.30;99.90;;;;;;5113732;28;20035;-75
2021/11/21 06:37:47;;;;;;;10.57;1.67;;;8.20;99.90;;;;;;5113211;28;20124;-75
2021/11/21 06:40:14;;;;;;;11.30;1.83;;;8.30;99.90;;;;;;5113778;28;20089;-75
2021/11/21 06:42:42;;;;;;;13.23;2.53;;;8.20;99.90;;;;;;5113587;28;20040;-74
2021/11/21 06:45:08;;;;;;;21.08;2.30;;;8.20;99.90;;;;;;5114048;28;20117;-75
2021/11/21 06:47:34;;;;;;;8.65;2.40;;;8.10;99.90;;;;;;5113192;28;20094;-75
2021/11/21 06:50:01;;;;;;;15.38;2.08;;;8.20;99.90;;;;;;5113699;28;20039;-75
2021/11/21 06:52:29;;;;;;;12.75;1.85;;;8.10;99.90;;;;;;5113573;28;20039;-75
2021/11/21 06:54:55;;;;;;;14.05;3.53;;;8.10;99.90;;;;;;5095496;28;20084;-74
2021/11/21 06:57:21;;;;;;;12.52;2.28;;;8.10;99.90;;;;;;5111691;28;20052;-75
2021/11/21 06:59:47;;;;;;;13.25;2.10;;;8.00;99.90;;;;;;5113492;28;20039;-74
2021/11/21 07:02:12;;;;;;;11.40;2.60;;;8.00;99.90;;;;;;5113467;28;20036;-75
2021/11/21 07:04:38;;;;;;;17.02;3.90;;;7.90;99.90;;;;;;5113344;28;20105;-75
2021/11/21 07:07:11;;;;;;;13.00;1.67;;;7.90;99.90;;;;;;5111802;28;20054;-75
2021/11/21 07:09:38;;;;;;;10.05;2.00;;;7.80;99.90;;;;;;5113359;28;20035;-75
2021/11/21 07:12:04;;;;;;;10.82;2.40;;;7.80;99.90;;;;;;5113293;28;20084;-75
2021/11/21 07:14:29;;;;;;;10.13;1.70;;;7.80;99.90;;;;;;5113273;28;20040;-74
2021/11/21 07:16:55;;;;;;;11.73;1.60;;;7.70;99.90;;;;;;5094528;28;20039;-75
2021/11/21 07:19:21;;;;;;;14.77;2.00;;;7.70;99.90;;;;;;5112237;28;20055;-75
2021/11/21 07:21:47;;;;;;;18.88;2.15;;;7.60;99.90;;;;;;5113237;28;20168;-74
2021/11/21 07:24:13;;;;;;;13.15;1.80;;;7.60;99.90;;;;;;5113549;28;20081;-74
2021/11/21 07:26:40;;;;;;;14.02;3.08;;;7.60;99.90;;;;;;5111575;28;20047;-74
2021/11/21 07:29:06;;;;;;;12.00;1.88;;;7.60;99.90;;;;;;5113222;28;20086;-74
2021/11/21 07:31:33;;;;;;;13.63;3.00;;;7.50;99.90;;;;;;5112023;28;20067;-74
2021/11/21 07:33:59;;;;;;;12.35;2.80;;;7.50;99.90;;;;;;5113269;28;20031;-74
2021/11/21 07:36:25;;;;;;;10.32;2.20;;;7.50;99.90;;;;;;5113409;28;20507;-74
2021/11/21 07:38:50;;;;;;;14.13;3.00;;;7.50;99.90;;;;;;5115843;28;20035;-74
2021/11/21 07:41:16;;;;;;;12.07;2.47;;;7.40;99.90;;;;;;5098796;28;20044;-74
2021/11/21 07:43:43;;;;;;;15.73;1.88;;;7.40;99.90;;;;;;5117097;28;20397;-74
2021/11/21 07:46:08;;;;;;;15.27;2.88;;;7.40;99.90;;;;;;5116331;28;20123;-74
2021/11/21 07:48:34;;;;;;;12.63;2.60;;;7.40;99.90;;;;;;5116693;28;20067;-74
2021/11/21 07:51:00;;;;;;;11.95;1.98;;;7.40;99.90;;;;;;5116610;28;20031;-74
2021/11/21 07:53:27;;;;;;;10.65;2.45;;;7.30;99.90;;;;;;5116519;28;20064;-74
2021/11/21 07:55:53;;;;;;;9.80;2.00;;;7.40;99.90;;;;;;5115191;28;20388;-74
2021/11/21 07:58:19;;;;;;;15.27;3.08;;;7.40;99.90;;;;;;5116359;28;20481;-74
2021/11/21 08:00:46;;;;;;;13.02;2.30;;;7.50;99.90;;;;;;5116546;28;20039;-74
2021/11/21 08:03:11;;;;;;;21.25;2.28;;;7.50;99.90;;;;;;5116587;28;20063;-73
2021/11/21 08:05:37;;;;;;;9.43;2.78;;;7.60;99.90;;;;;;5116062;28;20080;-74
2021/11/21 08:08:03;;;;;;;13.30;2.35;;;7.60;99.90;;;;;;5116646;28;20039;-73
2021/11/21 08:10:29;;;;;;;13.77;2.10;;;7.60;99.90;;;;;;5116124;28;20419;-73
2021/11/21 08:12:55;;;;;;;10.60;2.10;;;7.60;99.90;;;;;;5116322;28;20039;-73
2021/11/21 08:15:20;;;;;;;15.32;2.65;;;7.60;99.90;;;;;;5115838;28;20043;-73
2021/11/21 08:17:46;;;;;;;16.70;2.28;;;7.70;99.90;;;;;;5115416;28;20039;-73
2021/11/21 08:20:12;;;;;;;13.68;3.53;;;7.70;99.90;;;;;;5116362;28;20097;-74
2021/11/21 08:22:39;;;;;;;39.35;4.57;;;7.60;99.90;;;;;;5114561;28;20039;-73
2021/11/21 08:25:06;;;;;;;14.25;2.50;;;7.60;99.90;;;;;;5116269;28;20090;-74
2021/11/21 08:27:32;;;;;;;13.95;2.10;;;7.60;99.90;;;;;;5114520;28;20040;-73
2021/11/21 08:29:57;;;;;;;14.38;2.67;;;7.60;99.90;;;;;;5114499;28;20449;-73
2021/11/21 08:32:23;;;;;;;18.20;2.25;;;7.60;99.90;;;;;;5115974;28;20051;-73
2021/11/21 08:34:49;;;;;;;16.48;3.33;;;7.60;99.90;;;;;;5115768;28;20068;-73
2021/11/21 08:37:14;;;;;;;12.38;2.53;;;7.60;99.90;;;;;;5115180;28;20047;-73
2021/11/21 08:39:40;;;;;;;12.75;2.30;;;7.60;99.90;;;;;;5115778;28;20118;-73
2021/11/21 08:42:06;;;;;;;19.80;2.63;;;7.70;99.90;;;;;;5115671;28;20114;-73
2021/11/21 08:44:32;;;;;;;9.35;2.15;;;7.80;99.90;;;;;;5115394;28;20504;-73
2021/11/21 08:46:58;;;;;;;15.63;2.95;;;7.80;99.90;;;;;;5114935;28;20040;-73
2021/11/21 08:49:23;;;;;;;13.18;2.70;;;7.90;99.90;;;;;;5114150;28;20043;-73
2021/11/21 08:51:52;;;;;;;18.65;2.88;;;8.00;99.90;;;;;;5114343;28;20036;-73
2021/11/21 08:54:18;;;;;;;13.77;2.35;;;8.00;99.90;;;;;;5113577;28;20071;-73
2021/11/21 08:56:46;;;;;;;10.57;2.40;;;8.10;99.90;;;;;;5126986;27;20127;-73
2021/11/21 08:59:11;;;;;;;16.33;3.53;;;8.10;99.90;;;;;;5136162;27;20039;-73
2021/11/21 09:01:37;;;;;;;16.60;2.03;;;8.20;99.90;;;;;;5135887;27;20081;-73
2021/11/21 09:04:03;;;;;;;11.10;2.20;;;8.20;99.90;;;;;;5135667;27;20053;-73
2021/11/21 09:06:29;;;;;;;17.13;2.10;;;8.20;99.90;;;;;;5135215;27;20039;-73
2021/11/21 09:08:56;;;;;;;10.63;2.83;;;8.30;99.90;;;;;;5135490;27;20122;-71
2021/11/21 09:11:22;;;;;;;18.23;3.75;;;8.20;99.90;;;;;;5135765;27;20031;-71
2021/11/21 09:13:47;;;;;;;9.98;2.10;;;8.30;99.90;;;;;;5135626;27;20043;-72
2021/11/21 09:16:13;;;;;;;14.95;2.97;;;8.30;99.90;;;;;;5135099;27;20043;-72
2021/11/21 09:18:39;;;;;;;13.70;2.38;;;8.30;99.90;;;;;;5134430;27;20038;-71
2021/11/21 09:21:04;;;;;;;12.57;2.92;;;8.30;99.90;;;;;;5134275;27;20540;-71
2021/11/21 09:23:30;;;;;;;16.75;2.13;;;8.30;99.90;;;;;;5135397;27;20063;-72
2021/11/21 09:25:56;;;;;;;14.77;3.90;;;8.30;99.90;;;;;;5133647;27;20039;-72
2021/11/21 09:28:26;;;;;;;10.90;2.50;;;8.40;99.90;;;;;;5135492;27;20050;-72
2021/11/21 09:30:54;;;;;;;8.63;2.35;;;8.40;99.90;;;;;;5135477;27;20110;-72
2021/11/21 09:33:20;;;;;;;10.45;1.90;;;8.40;99.90;;;;;;5134040;27;20049;-72
2021/11/21 09:35:47;;;;;;;14.60;2.40;;;8.40;99.90;;;;;;5134673;27;20042;-72
2021/11/21 09:38:13;;;;;;;12.15;2.03;;;8.40;99.90;;;;;;5134986;27;20436;-72
2021/11/21 09:40:39;;;;;;;13.40;1.70;;;8.40;99.90;;;;;;5134969;27;20035;-72
2021/11/21 09:43:04;;;;;;;9.68;1.95;;;8.40;99.90;;;;;;5134911;27;20041;-72
2021/11/21 09:45:30;;;;;;;12.68;2.03;;;8.40;99.90;;;;;;5133549;27;20039;-72
2021/11/21 09:47:59;;;;;;;14.23;2.75;;;8.40;99.90;;;;;;5134885;27;20394;-73
2021/11/21 09:50:26;;;;;;;14.80;2.85;;;8.50;99.90;;;;;;5134979;27;20440;-73
2021/11/21 09:52:52;;;;;;;7.65;2.47;;;8.50;99.90;;;;;;5134889;27;20114;-73
2021/11/21 09:55:18;;;;;;;10.75;2.05;;;8.50;99.90;;;;;;5133294;27;20213;-73
2021/11/21 09:57:45;;;;;;;10.25;1.73;;;8.50;99.90;;;;;;5132836;27;20476;-73
2021/11/21 10:00:16;;;;;;;12.57;2.50;;;8.50;99.90;;;;;;5134473;27;20043;-73
2021/11/21 10:02:45;;;;;;;14.57;2.60;;;8.60;99.90;;;;;;5135296;27;20039;-73
2021/11/21 10:05:32;;;;;;;15.40;1.50;;;8.60;99.90;;;;;;5133549;27;20042;-73
2021/11/21 10:08:08;;;;;;;12.93;1.70;;;8.60;99.90;;;;;;5116190;27;20072;-73
2021/11/21 10:10:42;;;;;;;10.60;1.73;;;8.60;99.90;;;;;;5134635;27;20039;-73
2021/11/21 10:13:45;;;;;;;11.15;2.33;;;8.60;99.90;;;;;;5134502;27;20137;-73
2021/11/21 10:16:20;;;;;;;12.18;2.80;;;8.70;99.90;;;;;;5134131;27;20035;-73
2021/11/21 10:18:51;;;;;;;8.25;1.50;;;8.70;99.90;;;;;;5134373;27;20039;-73
2021/11/21 10:21:20;;;;;;;10.18;1.75;;;8.70;99.90;;;;;;5134710;27;20118;-73
2021/11/21 10:23:46;;;;;;;12.63;2.47;;;8.80;99.90;;;;;;5133016;27;20042;-73
2021/11/21 10:26:23;;;;;;;14.02;2.10;;;8.90;99.90;;;;;;5133949;27;20039;-73
2021/11/21 10:28:52;;;;;;;11.00;2.78;;;8.90;99.90;;;;;;5134143;27;20126;-73
2021/11/21 10:31:21;;;;;;;17.00;2.03;;;8.90;99.90;;;;;;5132945;28;20043;-73
2021/11/21 10:33:58;;;;;;;12.98;2.03;;;9.00;99.90;;;;;;5134250;27;20035;-73
2021/11/21 10:36:30;;;;;;;10.15;1.70;;;9.10;99.90;;;;;;5133709;27;20039;-73
2021/11/21 10:38:58;;;;;;;9.70;1.90;;;9.20;99.90;;;;;;5134491;27;20027;-75
2021/11/21 10:41:29;;;;;;;12.80;2.10;;;9.20;99.90;;;;;;5134321;27;20434;-74
2021/11/21 10:43:55;;;;;;;8.07;1.60;;;9.20;99.90;;;;;;5134148;27;20042;-73
2021/11/21 10:46:34;;;;;;;8.50;2.47;;;9.20;99.90;;;;;;5115413;28;20118;-73
2021/11/21 10:49:24;;;;;;;7.30;1.75;;;9.30;99.90;;;;;;5133249;27;20039;-74
2021/11/21 10:52:01;;;;;;;9.30;2.45;;;9.30;99.90;;;;;;5130843;28;20039;-73
2021/11/21 10:54:33;;;;;;;7.32;1.98;;;9.40;99.90;;;;;;5130923;28;20430;-74
2021/11/21 10:57:02;;;;;;;6.72;1.45;;;9.40;99.90;;;;;;5132342;28;20043;-74
2021/11/21 11:00:01;;;;;;;13.35;2.08;;;9.50;99.90;;;;;;5131880;28;20043;-73
2021/11/21 11:02:29;;;;;;;5.97;1.73;;;9.60;99.90;;;;;;5115752;28;20388;-73
2021/11/21 11:05:15;;;;;;;9.10;2.45;;;9.60;99.90;;;;;;5134098;27;20065;-74
2021/11/21 11:07:51;;;;;;;11.07;1.45;;;9.60;99.90;;;;;;5133757;27;20054;-74
2021/11/21 11:10:18;;;;;;;7.97;1.80;;;9.70;99.90;;;;;;5134793;27;20568;-73
2021/11/21 11:12:53;;;;;;;5.70;1.00;;;9.80;99.90;;;;;;5137824;27;20035;-73
2021/11/21 11:15:20;;;;;;;9.35;1.73;;;10.00;99.90;;;;;;5138000;27;20092;-75
2021/11/21 11:17:46;;;;;;;4.78;0.93;;;10.10;99.90;;;;;;5137665;27;20039;-74
2021/11/21 11:20:15;;;;;;;5.97;0.85;;;10.00;99.90;;;;;;5136851;27;20039;-74
2021/11/21 11:22:41;;;;;;;4.18;0.98;;;9.90;99.90;;;;;;5116362;27;20039;-73
2021/11/21 11:25:11;;;;;;;4.78;1.40;;;9.90;99.90;;;;;;5117410;28;20074;-72
2021/11/21 11:28:07;;;;;;;8.07;1.33;;;9.80;99.90;;;;;;5115473;28;20051;-74
2021/11/21 11:30:36;;;;;;;11.63;2.17;;;9.80;99.90;;;;;;5099056;28;20039;-74
2021/11/21 11:33:11;;;;;;;6.25;1.40;;;9.80;99.90;;;;;;5098800;28;20092;-74
2021/11/21 11:35:57;;;;;;;10.48;2.17;;;9.80;99.90;;;;;;5115311;28;20043;-73
2021/11/21 11:38:32;;;;;;;7.15;1.40;;;9.80;99.90;;;;;;5116601;28;20052;-74
2021/11/21 11:41:00;;;;;;;8.98;1.35;;;9.80;99.90;;;;;;5098199;28;20458;-73
2021/11/21 11:43:38;;;;;;;6.22;1.20;;;9.80;99.90;;;;;;5116639;27;20047;-74
2021/11/21 11:46:19;;;;;;;8.73;1.60;;;9.90;99.90;;;;;;5115583;28;20040;-72
2021/11/21 11:48:48;;;;;;;8.85;2.13;;;9.90;99.90;;;;;;5116785;28;20057;-72
2021/11/21 11:51:37;;;;;;;5.78;1.65;;;10.00;99.90;;;;;;5115129;28;20039;-73
2021/11/21 11:54:11;;;;;;;7.35;1.70;;;10.00;99.90;;;;;;5114291;27;20055;-75
2021/11/21 11:56:47;;;;;;;9.40;1.73;;;10.00;99.90;;;;;;5115391;28;20043;-72
2021/11/21 11:59:25;;;;;;;4.53;1.17;;;10.10;99.90;;;;;;5098624;28;20051;-73
2021/11/21 12:01:53;;;;;;;5.65;1.10;;;10.10;99.90;;;;;;5116314;28;20047;-74
2021/11/21 12:04:25;;;;;;;3.58;0.63;;;10.10;99.90;;;;;;5115224;27;20043;-74
2021/11/21 12:07:17;;;;;;;4.17;1.00;;;10.00;99.90;;;;;;5116067;28;20046;-74
2021/11/21 12:10:02;;;;;;;4.20;1.23;;;9.80;99.90;;;;;;5106407;28;20122;-76
2021/11/21 12:13:07;;;;;;;3.35;0.90;;;9.70;99.90;;;;;;5116647;28;20040;-74
2021/11/21 12:15:45;;;;;;;2.45;0.80;;;9.70;99.90;;;;;;5115881;28;20365;-74
2021/11/21 12:18:11;;;;;;;4.28;0.82;;;9.60;99.90;;;;;;5117804;28;20039;-74
2021/11/21 12:20:45;;;;;;;5.15;0.90;;;9.60;99.90;;;;;;5116141;28;20038;-74
2021/11/21 12:23:11;;;;;;;;;;;9.60;99.90;;;;;;5115551;28;20071;-74
2021/11/21 12:25:37;;;;;;;2.53;0.80;;;9.60;99.90;;;;;;5114439;28;19919;-73
2021/11/21 12:28:04;;;;;;;5.78;1.33;;;9.50;99.90;;;;;;5114340;28;20047;-74
2021/11/21 12:30:35;;;;;;;3.33;1.23;;;9.50;99.90;;;;;;5115970;27;20095;-73
2021/11/21 12:33:23;;;;;;;7.03;1.35;;;9.50;99.90;;;;;;5115537;28;20038;-73
2021/11/21 12:35:53;;;;;;;5.53;1.92;;;9.40;99.90;;;;;;5097139;28;20507;-74
2021/11/21 12:38:21;;;;;;;7.13;1.17;;;9.40;99.90;;;;;;5115944;28;20031;-72
2021/11/21 12:40:51;;;;;;;5.53;1.00;;;9.40;99.90;;;;;;5115770;28;20039;-74
2021/11/21 12:43:18;;;;;;;4.32;0.85;;;9.50;99.90;;;;;;5115798;27;20464;-74
2021/11/21 12:45:51;;;;;;;8.05;1.33;;;9.50;99.90;;;;;;5115501;28;20039;-73
2021/11/21 12:48:24;;;;;;;7.22;1.45;;;9.60;99.90;;;;;;5114108;28;20050;-73
2021/11/21 12:50:51;;;;;;;;;;;9.60;99.90;;;;;;5114721;28;20473;-72
2021/11/21 12:53:20;;;;;;;4.78;1.50;;;9.50;99.90;;;;;;5115520;28;19968;-73
2021/11/21 12:55:49;;;;;;;9.60;1.35;;;9.50;99.90;;;;;;5115151;28;20111;-73